sensor_id;sensor_type;location;lat;lon;timestamp;temperature;humidity
8856;DHT22;4464;50.882;4.730;2022-09-01T00:01:43;19.10;99.90
8856;DHT22;4464;50.882;4.730;2022-09-01T00:04:16;19.00;99.90
8856;DHT22;4464;50.882;4.730;2022-09-01T00:06:42;19.00;99.90
8856;DHT22;4464;50.882;4.730;2022-09-01T00:09:14;19.00;99.90
8856;DHT22;4464;50.882;4.730;2022-09-01T00:11:43;19.00;99.90
8856;DHT22;4464;50.882;4.730;2022-09-01T00:14:09;18.90;99.90
8856;DHT22;4464;50.882;4.730;2022-09-01T00:16:36;18.90;99.90
8856;DHT22;4464;50.882;4.730;2022-09-01T00:19:03;18.80;99.90
8856;DHT22;4464;50.882;4.730;2022-09-01T00:21:33;18.80;99.90
8856;DHT22;4464;50.882;4.730;2022-09-01T00:24:02;18.80;99.90
8856;DHT22;4464;50.882;4.730;2022-09-01T00:26:29;18.80;99.90
8856;DHT22;4464;50.882;4.730;2022-09-01T00:28:57;18.80;99.90
8856;DHT22;4464;50.882;4.730;2022-09-01T00:31:31;18.80;99.90
8856;DHT22;4464;50.882;4.730;2022-09-01T00:33:57;18.80;99.90
8856;DHT22;4464;50.882;4.730;2022-09-01T00:36:25;18.80;99.90
8856;DHT22;4464;50.882;4.730;2022-09-01T00:38:51;18.80;99.90
8856;DHT22;4464;50.882;4.730;2022-09-01T00:41:20;18.70;99.90
8856;DHT22;4464;50.882;4.730;2022-09-01T00:43:52;18.60;99.90
8856;DHT22;4464;50.882;4.730;2022-09-01T00:46:28;18.60;99.90
8856;DHT22;4464;50.882;4.730;2022-09-01T00:49:11;18.50;99.90
8856;DHT22;4464;50.882;4.730;2022-09-01T00:51:40;18.60;99.90
8856;DHT22;4464;50.882;4.730;2022-09-01T00:54:11;18.50;99.90
8856;DHT22;4464;50.882;4.730;2022-09-01T00:56:41;18.60;99.90
8856;DHT22;4464;50.882;4.730;2022-09-01T00:59:11;18.40;99.90
8856;DHT22;4464;50.882;4.730;2022-09-01T01:01:39;18.40;99.90
8856;DHT22;4464;50.882;4.730;2022-09-01T01:04:09;18.30;99.90
8856;DHT22;4464;50.882;4.730;2022-09-01T01:06:49;18.40;99.90
8856;DHT22;4464;50.882;4.730;2022-09-01T01:09:25;18.40;99.90
8856;DHT22;4464;50.882;4.730;2022-09-01T01:11:52;18.40;99.90
8856;DHT22;4464;50.882;4.730;2022-09-01T01:14:18;18.30;99.90
8856;DHT22;4464;50.882;4.730;2022-09-01T01:16:48;18.30;99.90
8856;DHT22;4464;50.882;4.730;2022-09-01T01:19:24;18.30;99.90
8856;DHT22;4464;50.882;4.730;2022-09-01T01:22:27;18.20;99.90
8856;DHT22;4464;50.882;4.730;2022-09-01T01:25:12;18.20;99.90
8856;DHT22;4464;50.882;4.730;2022-09-01T01:27:39;18.00;99.90
8856;DHT22;4464;50.882;4.730;2022-09-01T01:30:09;18.00;99.90
8856;DHT22;4464;50.882;4.730;2022-09-01T01:32:38;17.90;99.90
8856;DHT22;4464;50.882;4.730;2022-09-01T01:35:11;18.00;99.90
8856;DHT22;4464;50.882;4.730;2022-09-01T01:37:45;17.90;99.90
8856;DHT22;4464;50.882;4.730;2022-09-01T01:40:16;17.80;99.90
8856;DHT22;4464;50.882;4.730;2022-09-01T01:42:47;17.80;99.90
8856;DHT22;4464;50.882;4.730;2022-09-01T01:45:15;17.80;99.90
8856;DHT22;4464;50.882;4.730;2022-09-01T01:47:45;17.80;99.90
8856;DHT22;4464;50.882;4.730;2022-09-01T01:50:23;17.80;99.90
8856;DHT22;4464;50.882;4.730;2022-09-01T01:52:49;17.70;99.90
8856;DHT22;4464;50.882;4.730;2022-09-01T01:55:15;17.70;99.90
8856;DHT22;4464;50.882;4.730;2022-09-01T01:57:47;17.60;99.90
8856;DHT22;4464;50.882;4.730;2022-09-01T02:00:20;17.70;99.90
8856;DHT22;4464;50.882;4.730;2022-09-01T02:02:50;17.60;99.90
8856;DHT22;4464;50.882;4.730;2022-09-01T02:05:29;17.50;99.90
8856;DHT22;4464;50.882;4.730;2022-09-01T02:08:02;17.40;99.90
8856;DHT22;4464;50.882;4.730;2022-09-01T02:10:35;17.40;99.90
8856;DHT22;4464;50.882;4.730;2022-09-01T02:13:05;17.50;99.90
8856;DHT22;4464;50.882;4.730;2022-09-01T02:15:39;17.50;99.90
8856;DHT22;4464;50.882;4.730;2022-09-01T02:18:16;17.50;99.90
8856;DHT22;4464;50.882;4.730;2022-09-01T02:20:46;17.50;99.90
8856;DHT22;4464;50.882;4.730;2022-09-01T02:23:14;17.60;99.90
8856;DHT22;4464;50.882;4.730;2022-09-01T02:25:45;17.60;99.90
8856;DHT22;4464;50.882;4.730;2022-09-01T02:28:15;17.50;99.90
8856;DHT22;4464;50.882;4.730;2022-09-01T02:30:45;17.40;99.90
8856;DHT22;4464;50.882;4.730;2022-09-01T02:33:14;17.40;99.90
8856;DHT22;4464;50.882;4.730;2022-09-01T02:35:45;17.50;99.90
8856;DHT22;4464;50.882;4.730;2022-09-01T02:38:11;17.50;99.90
8856;DHT22;4464;50.882;4.730;2022-09-01T02:40:39;17.60;99.90
8856;DHT22;4464;50.882;4.730;2022-09-01T02:43:09;17.60;99.90
8856;DHT22;4464;50.882;4.730;2022-09-01T02:45:41;17.80;99.90
8856;DHT22;4464;50.882;4.730;2022-09-01T02:48:12;17.90;99.90
8856;DHT22;4464;50.882;4.730;2022-09-01T02:50:39;17.90;99.90
8856;DHT22;4464;50.882;4.730;2022-09-01T02:53:08;17.90;99.90
8856;DHT22;4464;50.882;4.730;2022-09-01T02:55:40;17.90;99.90
8856;DHT22;4464;50.882;4.730;2022-09-01T02:58:07;17.80;99.90
8856;DHT22;4464;50.882;4.730;2022-09-01T03:00:42;17.80;99.90
8856;DHT22;4464;50.882;4.730;2022-09-01T03:03:10;17.80;99.90
8856;DHT22;4464;50.882;4.730;2022-09-01T03:05:44;17.80;99.90
8856;DHT22;4464;50.882;4.730;2022-09-01T03:08:11;17.70;99.90
8856;DHT22;4464;50.882;4.730;2022-09-01T03:10:42;17.70;99.90
8856;DHT22;4464;50.882;4.730;2022-09-01T03:13:14;17.70;99.90
8856;DHT22;4464;50.882;4.730;2022-09-01T03:15:41;17.50;99.90
8856;DHT22;4464;50.882;4.730;2022-09-01T03:18:09;17.50;99.90
8856;DHT22;4464;50.882;4.730;2022-09-01T03:20:40;17.50;99.90
8856;DHT22;4464;50.882;4.730;2022-09-01T03:23:13;17.40;99.90
8856;DHT22;4464;50.882;4.730;2022-09-01T03:25:41;17.40;99.90
8856;DHT22;4464;50.882;4.730;2022-09-01T03:28:10;17.20;99.90
8856;DHT22;4464;50.882;4.730;2022-09-01T03:30:37;17.20;99.90
8856;DHT22;4464;50.882;4.730;2022-09-01T03:33:06;17.10;99.90
8856;DHT22;4464;50.882;4.730;2022-09-01T03:35:33;17.10;99.90
8856;DHT22;4464;50.882;4.730;2022-09-01T03:38:00;17.10;99.90
8856;DHT22;4464;50.882;4.730;2022-09-01T03:40:32;17.00;99.90
8856;DHT22;4464;50.882;4.730;2022-09-01T03:43:07;17.00;99.90
8856;DHT22;4464;50.882;4.730;2022-09-01T03:45:36;17.00;99.90
8856;DHT22;4464;50.882;4.730;2022-09-01T03:48:04;16.90;99.90
8856;DHT22;4464;50.882;4.730;2022-09-01T03:50:40;16.90;99.90
8856;DHT22;4464;50.882;4.730;2022-09-01T03:53:21;16.80;99.90
8856;DHT22;4464;50.882;4.730;2022-09-01T03:55:49;16.80;99.90
8856;DHT22;4464;50.882;4.730;2022-09-01T03:58:17;16.80;99.90
8856;DHT22;4464;50.882;4.730;2022-09-01T04:00:51;16.70;99.90
8856;DHT22;4464;50.882;4.730;2022-09-01T04:03:22;16.60;99.90
8856;DHT22;4464;50.882;4.730;2022-09-01T04:05:50;16.50;99.90
8856;DHT22;4464;50.882;4.730;2022-09-01T04:08:18;16.60;99.90
8856;DHT22;4464;50.882;4.730;2022-09-01T04:10:51;16.50;99.90
8856;DHT22;4464;50.882;4.730;2022-09-01T04:13:23;16.40;99.90
8856;DHT22;4464;50.882;4.730;2022-09-01T04:15:52;16.40;99.90
8856;DHT22;4464;50.882;4.730;2022-09-01T04:18:19;16.30;99.90
8856;DHT22;4464;50.882;4.730;2022-09-01T04:20:57;16.30;99.90
8856;DHT22;4464;50.882;4.730;2022-09-01T04:23:32;16.20;99.90
8856;DHT22;4464;50.882;4.730;2022-09-01T04:26:09;16.20;99.90
8856;DHT22;4464;50.882;4.730;2022-09-01T04:28:46;16.20;99.90
8856;DHT22;4464;50.882;4.730;2022-09-01T04:31:18;16.30;99.90
8856;DHT22;4464;50.882;4.730;2022-09-01T04:33:49;16.20;99.90
8856;DHT22;4464;50.882;4.730;2022-09-01T04:36:28;16.20;99.90
8856;DHT22;4464;50.882;4.730;2022-09-01T04:39:01;16.20;99.90
8856;DHT22;4464;50.882;4.730;2022-09-01T04:41:37;16.10;99.90
8856;DHT22;4464;50.882;4.730;2022-09-01T04:44:09;16.00;99.90
8856;DHT22;4464;50.882;4.730;2022-09-01T04:46:41;16.00;99.90
8856;DHT22;4464;50.882;4.730;2022-09-01T04:49:17;16.00;99.90
8856;DHT22;4464;50.882;4.730;2022-09-01T04:51:49;16.00;99.90
8856;DHT22;4464;50.882;4.730;2022-09-01T04:54:21;16.00;99.90
8856;DHT22;4464;50.882;4.730;2022-09-01T04:56:48;16.00;99.90
8856;DHT22;4464;50.882;4.730;2022-09-01T04:59:17;16.00;99.90
8856;DHT22;4464;50.882;4.730;2022-09-01T05:01:47;16.00;99.90
8856;DHT22;4464;50.882;4.730;2022-09-01T05:04:20;15.90;99.90
8856;DHT22;4464;50.882;4.730;2022-09-01T05:06:50;15.90;99.90
8856;DHT22;4464;50.882;4.730;2022-09-01T05:09:19;15.90;99.90
8856;DHT22;4464;50.882;4.730;2022-09-01T05:11:45;15.90;99.90
8856;DHT22;4464;50.882;4.730;2022-09-01T05:14:14;15.80;99.90
8856;DHT22;4464;50.882;4.730;2022-09-01T05:16:43;15.90;99.90
8856;DHT22;4464;50.882;4.730;2022-09-01T05:19:10;15.90;99.90
8856;DHT22;4464;50.882;4.730;2022-09-01T05:21:44;15.90;99.90
8856;DHT22;4464;50.882;4.730;2022-09-01T05:24:17;15.90;99.90
8856;DHT22;4464;50.882;4.730;2022-09-01T05:26:45;15.90;99.90
8856;DHT22;4464;50.882;4.730;2022-09-01T05:29:12;15.90;99.90
8856;DHT22;4464;50.882;4.730;2022-09-01T05:31:44;16.00;99.90
8856;DHT22;4464;50.882;4.730;2022-09-01T05:34:11;16.00;99.90
8856;DHT22;4464;50.882;4.730;2022-09-01T05:36:41;16.10;99.90
8856;DHT22;4464;50.882;4.730;2022-09-01T05:39:07;16.10;99.90
8856;DHT22;4464;50.882;4.730;2022-09-01T05:41:40;16.20;99.90
8856;DHT22;4464;50.882;4.730;2022-09-01T05:44:07;16.20;99.90
8856;DHT22;4464;50.882;4.730;2022-09-01T05:46:37;16.20;99.90
8856;DHT22;4464;50.882;4.730;2022-09-01T05:49:06;16.30;99.90
8856;DHT22;4464;50.882;4.730;2022-09-01T05:51:41;16.30;99.90
8856;DHT22;4464;50.882;4.730;2022-09-01T05:54:10;16.40;99.90
8856;DHT22;4464;50.882;4.730;2022-09-01T05:56:39;16.40;99.90
8856;DHT22;4464;50.882;4.730;2022-09-01T05:59:06;16.40;99.90
8856;DHT22;4464;50.882;4.730;2022-09-01T06:01:34;16.50;99.90
8856;DHT22;4464;50.882;4.730;2022-09-01T06:04:03;16.50;99.90
8856;DHT22;4464;50.882;4.730;2022-09-01T06:06:41;16.60;99.90
8856;DHT22;4464;50.882;4.730;2022-09-01T06:09:11;16.60;99.90
8856;DHT22;4464;50.882;4.730;2022-09-01T06:11:38;16.60;99.90
8856;DHT22;4464;50.882;4.730;2022-09-01T06:14:06;16.70;99.90
8856;DHT22;4464;50.882;4.730;2022-09-01T06:16:38;16.80;99.90
8856;DHT22;4464;50.882;4.730;2022-09-01T06:19:04;16.80;99.90
8856;DHT22;4464;50.882;4.730;2022-09-01T06:21:31;16.80;99.90
8856;DHT22;4464;50.882;4.730;2022-09-01T06:23:59;16.80;99.90
8856;DHT22;4464;50.882;4.730;2022-09-01T06:26:31;16.90;99.90
8856;DHT22;4464;50.882;4.730;2022-09-01T06:28:59;16.90;99.90
8856;DHT22;4464;50.882;4.730;2022-09-01T06:31:33;16.90;99.90
8856;DHT22;4464;50.882;4.730;2022-09-01T06:34:02;16.90;99.90
8856;DHT22;4464;50.882;4.730;2022-09-01T06:36:30;16.90;99.90
8856;DHT22;4464;50.882;4.730;2022-09-01T06:38:59;16.90;99.90
8856;DHT22;4464;50.882;4.730;2022-09-01T06:41:28;17.10;99.90
8856;DHT22;4464;50.882;4.730;2022-09-01T06:43:56;17.10;99.90
8856;DHT22;4464;50.882;4.730;2022-09-01T06:46:24;17.10;99.90
8856;DHT22;4464;50.882;4.730;2022-09-01T06:48:53;17.30;99.90
8856;DHT22;4464;50.882;4.730;2022-09-01T06:51:24;17.40;99.90
8856;DHT22;4464;50.882;4.730;2022-09-01T06:53:51;17.60;99.90
8856;DHT22;4464;50.882;4.730;2022-09-01T06:56:28;17.70;99.90
8856;DHT22;4464;50.882;4.730;2022-09-01T06:59:00;17.70;99.90
8856;DHT22;4464;50.882;4.730;2022-09-01T07:01:32;17.80;99.90
8856;DHT22;4464;50.882;4.730;2022-09-01T07:04:00;17.90;99.90
8856;DHT22;4464;50.882;4.730;2022-09-01T07:06:26;18.10;99.90
8856;DHT22;4464;50.882;4.730;2022-09-01T07:08:57;18.10;99.90
8856;DHT22;4464;50.882;4.730;2022-09-01T07:11:27;18.30;99.90
8856;DHT22;4464;50.882;4.730;2022-09-01T07:13:56;18.40;99.90
8856;DHT22;4464;50.882;4.730;2022-09-01T07:16:24;18.60;99.90
8856;DHT22;4464;50.882;4.730;2022-09-01T07:18:56;18.70;99.90
8856;DHT22;4464;50.882;4.730;2022-09-01T07:21:23;18.80;99.90
8856;DHT22;4464;50.882;4.730;2022-09-01T07:23:50;18.90;99.90
8856;DHT22;4464;50.882;4.730;2022-09-01T07:26:17;19.00;99.90
8856;DHT22;4464;50.882;4.730;2022-09-01T07:28:48;19.20;99.90
8856;DHT22;4464;50.882;4.730;2022-09-01T07:31:27;19.30;99.90
8856;DHT22;4464;50.882;4.730;2022-09-01T07:33:58;19.40;99.90
8856;DHT22;4464;50.882;4.730;2022-09-01T07:36:25;19.50;99.90
8856;DHT22;4464;50.882;4.730;2022-09-01T07:38:51;19.70;99.90
8856;DHT22;4464;50.882;4.730;2022-09-01T07:41:23;19.80;99.90
8856;DHT22;4464;50.882;4.730;2022-09-01T07:43:52;19.90;99.90
8856;DHT22;4464;50.882;4.730;2022-09-01T07:46:20;20.10;99.90
8856;DHT22;4464;50.882;4.730;2022-09-01T07:48:48;20.30;99.90
8856;DHT22;4464;50.882;4.730;2022-09-01T07:51:18;20.30;99.90
8856;DHT22;4464;50.882;4.730;2022-09-01T07:53:47;20.50;99.90
8856;DHT22;4464;50.882;4.730;2022-09-01T07:56:16;20.60;99.90
8856;DHT22;4464;50.882;4.730;2022-09-01T07:58:45;20.70;99.90
8856;DHT22;4464;50.882;4.730;2022-09-01T08:01:14;20.70;99.90
8856;DHT22;4464;50.882;4.730;2022-09-01T08:03:45;20.70;99.90
8856;DHT22;4464;50.882;4.730;2022-09-01T08:06:13;21.00;99.90
8856;DHT22;4464;50.882;4.730;2022-09-01T08:08:40;21.10;99.90
8856;DHT22;4464;50.882;4.730;2022-09-01T08:11:07;21.30;99.90
8856;DHT22;4464;50.882;4.730;2022-09-01T08:13:35;21.60;99.90
8856;DHT22;4464;50.882;4.730;2022-09-01T08:16:06;22.10;99.90
8856;DHT22;4464;50.882;4.730;2022-09-01T08:18:38;22.40;99.90
8856;DHT22;4464;50.882;4.730;2022-09-01T08:21:08;22.90;99.90
8856;DHT22;4464;50.882;4.730;2022-09-01T08:23:37;23.30;99.90
8856;DHT22;4464;50.882;4.730;2022-09-01T08:26:11;23.70;99.90
8856;DHT22;4464;50.882;4.730;2022-09-01T08:28:41;24.10;98.90
8856;DHT22;4464;50.882;4.730;2022-09-01T08:31:09;24.60;98.30
8856;DHT22;4464;50.882;4.730;2022-09-01T08:33:41;25.20;97.60
8856;DHT22;4464;50.882;4.730;2022-09-01T08:36:10;25.60;96.10
8856;DHT22;4464;50.882;4.730;2022-09-01T08:38:36;25.90;95.70
8856;DHT22;4464;50.882;4.730;2022-09-01T08:41:12;26.70;94.70
8856;DHT22;4464;50.882;4.730;2022-09-01T08:46:31;27.70;92.50
8856;DHT22;4464;50.882;4.730;2022-09-01T08:49:22;28.30;91.60
8856;DHT22;4464;50.882;4.730;2022-09-01T08:54:56;29.10;90.10
8856;DHT22;4464;50.882;4.730;2022-09-01T09:00:01;29.30;88.60
8856;DHT22;4464;50.882;4.730;2022-09-01T09:10:13;30.50;84.00
8856;DHT22;4464;50.882;4.730;2022-09-01T09:12:55;30.40;83.40
8856;DHT22;4464;50.882;4.730;2022-09-01T09:20:44;30.90;80.30
8856;DHT22;4464;50.882;4.730;2022-09-01T09:23:26;30.80;79.20
8856;DHT22;4464;50.882;4.730;2022-09-01T09:25:54;30.40;78.80
8856;DHT22;4464;50.882;4.730;2022-09-01T09:28:25;30.30;79.00
8856;DHT22;4464;50.882;4.730;2022-09-01T09:31:23;30.80;78.50
8856;DHT22;4464;50.882;4.730;2022-09-01T09:33:49;31.00;76.60
8856;DHT22;4464;50.882;4.730;2022-09-01T09:36:35;30.80;77.80
8856;DHT22;4464;50.882;4.730;2022-09-01T09:39:13;31.20;77.00
8856;DHT22;4464;50.882;4.730;2022-09-01T09:42:06;31.80;74.30
8856;DHT22;4464;50.882;4.730;2022-09-01T09:44:46;31.30;72.80
8856;DHT22;4464;50.882;4.730;2022-09-01T09:47:41;31.60;72.20
8856;DHT22;4464;50.882;4.730;2022-09-01T09:52:39;32.70;67.90
8856;DHT22;4464;50.882;4.730;2022-09-01T09:55:28;32.70;67.30
8856;DHT22;4464;50.882;4.730;2022-09-01T09:57:59;32.70;66.40
8856;DHT22;4464;50.882;4.730;2022-09-01T10:00:33;32.50;65.40
8856;DHT22;4464;50.882;4.730;2022-09-01T10:03:03;32.90;65.90
8856;DHT22;4464;50.882;4.730;2022-09-01T10:07:58;32.50;63.50
8856;DHT22;4464;50.882;4.730;2022-09-01T10:13:22;32.50;62.80
8856;DHT22;4464;50.882;4.730;2022-09-01T10:15:54;32.60;61.60
8856;DHT22;4464;50.882;4.730;2022-09-01T10:18:28;33.00;62.60
8856;DHT22;4464;50.882;4.730;2022-09-01T10:21:14;33.40;62.20
8856;DHT22;4464;50.882;4.730;2022-09-01T10:23:40;34.00;60.40
8856;DHT22;4464;50.882;4.730;2022-09-01T10:26:14;34.50;58.60
8856;DHT22;4464;50.882;4.730;2022-09-01T10:28:53;34.20;57.80
8856;DHT22;4464;50.882;4.730;2022-09-01T10:31:21;34.60;58.40
8856;DHT22;4464;50.882;4.730;2022-09-01T10:33:49;34.40;58.50
8856;DHT22;4464;50.882;4.730;2022-09-01T10:36:16;33.70;59.10
8856;DHT22;4464;50.882;4.730;2022-09-01T10:38:43;33.90;58.90
8856;DHT22;4464;50.882;4.730;2022-09-01T10:41:09;34.40;57.90
8856;DHT22;4464;50.882;4.730;2022-09-01T10:43:49;34.10;57.80
8856;DHT22;4464;50.882;4.730;2022-09-01T10:48:47;34.90;56.40
8856;DHT22;4464;50.882;4.730;2022-09-01T10:53:43;35.80;56.70
8856;DHT22;4464;50.882;4.730;2022-09-01T10:59:07;34.60;56.40
8856;DHT22;4464;50.882;4.730;2022-09-01T11:04:11;35.50;55.20
8856;DHT22;4464;50.882;4.730;2022-09-01T11:14:24;35.70;56.00
8856;DHT22;4464;50.882;4.730;2022-09-01T11:22:44;35.40;55.50
8856;DHT22;4464;50.882;4.730;2022-09-01T11:25:44;34.40;55.40
8856;DHT22;4464;50.882;4.730;2022-09-01T11:30:46;34.70;54.80
8856;DHT22;4464;50.882;4.730;2022-09-01T11:36:04;35.20;54.80
8856;DHT22;4464;50.882;4.730;2022-09-01T11:38:42;36.00;54.50
8856;DHT22;4464;50.882;4.730;2022-09-01T11:41:23;36.30;52.90
8856;DHT22;4464;50.882;4.730;2022-09-01T11:43:52;36.50;52.70
8856;DHT22;4464;50.882;4.730;2022-09-01T11:46:26;36.00;53.20
8856;DHT22;4464;50.882;4.730;2022-09-01T11:48:53;35.70;53.30
8856;DHT22;4464;50.882;4.730;2022-09-01T11:51:23;35.60;53.50
8856;DHT22;4464;50.882;4.730;2022-09-01T11:53:57;36.00;52.80
8856;DHT22;4464;50.882;4.730;2022-09-01T11:56:26;36.40;53.00
8856;DHT22;4464;50.882;4.730;2022-09-01T11:58:54;36.30;53.00
8856;DHT22;4464;50.882;4.730;2022-09-01T12:01:39;36.20;53.00
8856;DHT22;4464;50.882;4.730;2022-09-01T12:04:29;36.80;51.80
8856;DHT22;4464;50.882;4.730;2022-09-01T12:06:58;36.90;51.90
8856;DHT22;4464;50.882;4.730;2022-09-01T12:09:41;36.90;51.80
8856;DHT22;4464;50.882;4.730;2022-09-01T12:14:59;35.60;52.90
8856;DHT22;4464;50.882;4.730;2022-09-01T12:17:25;34.70;53.60
8856;DHT22;4464;50.882;4.730;2022-09-01T12:19:52;34.80;53.60
8856;DHT22;4464;50.882;4.730;2022-09-01T12:22:19;34.90;53.30
8856;DHT22;4464;50.882;4.730;2022-09-01T12:24:55;34.50;53.80
8856;DHT22;4464;50.882;4.730;2022-09-01T12:27:25;35.80;52.90
8856;DHT22;4464;50.882;4.730;2022-09-01T12:29:51;36.70;52.40
8856;DHT22;4464;50.882;4.730;2022-09-01T12:32:18;37.60;52.30
8856;DHT22;4464;50.882;4.730;2022-09-01T12:35:02;37.20;51.60
8856;DHT22;4464;50.882;4.730;2022-09-01T12:37:28;37.50;51.30
8856;DHT22;4464;50.882;4.730;2022-09-01T12:39:56;38.50;50.70
8856;DHT22;4464;50.882;4.730;2022-09-01T12:42:28;37.70;50.70
8856;DHT22;4464;50.882;4.730;2022-09-01T12:45:07;37.30;51.00
8856;DHT22;4464;50.882;4.730;2022-09-01T12:52:50;36.40;51.60
8856;DHT22;4464;50.882;4.730;2022-09-01T12:55:20;36.20;51.60
8856;DHT22;4464;50.882;4.730;2022-09-01T12:57:55;35.50;51.40
8856;DHT22;4464;50.882;4.730;2022-09-01T13:00:35;34.00;52.40
8856;DHT22;4464;50.882;4.730;2022-09-01T13:05:31;35.30;52.30
8856;DHT22;4464;50.882;4.730;2022-09-01T13:08:00;36.40;51.50
8856;DHT22;4464;50.882;4.730;2022-09-01T13:10:31;36.90;50.20
8856;DHT22;4464;50.882;4.730;2022-09-01T13:12:57;36.80;50.30
8856;DHT22;4464;50.882;4.730;2022-09-01T13:15:24;36.80;49.10
8856;DHT22;4464;50.882;4.730;2022-09-01T13:17:53;35.30;50.40
8856;DHT22;4464;50.882;4.730;2022-09-01T13:20:18;35.50;50.40
8856;DHT22;4464;50.882;4.730;2022-09-01T13:22:46;36.50;49.60
8856;DHT22;4464;50.882;4.730;2022-09-01T13:25:17;36.80;48.60
8856;DHT22;4464;50.882;4.730;2022-09-01T13:27:44;37.90;48.30
8856;DHT22;4464;50.882;4.730;2022-09-01T13:30:13;39.30;47.40
8856;DHT22;4464;50.882;4.730;2022-09-01T13:32:41;39.60;46.40
8856;DHT22;4464;50.882;4.730;2022-09-01T13:35:08;39.60;46.30
8856;DHT22;4464;50.882;4.730;2022-09-01T13:37:34;40.00;45.20
8856;DHT22;4464;50.882;4.730;2022-09-01T13:40:03;39.50;45.30
8856;DHT22;4464;50.882;4.730;2022-09-01T13:42:30;39.20;45.80
8856;DHT22;4464;50.882;4.730;2022-09-01T13:44:56;38.70;45.30
8856;DHT22;4464;50.882;4.730;2022-09-01T13:47:22;37.30;45.50
8856;DHT22;4464;50.882;4.730;2022-09-01T13:49:49;36.10;46.50
8856;DHT22;4464;50.882;4.730;2022-09-01T13:52:15;36.00;47.20
8856;DHT22;4464;50.882;4.730;2022-09-01T13:54:47;37.10;46.80
8856;DHT22;4464;50.882;4.730;2022-09-01T13:57:15;37.10;46.20
8856;DHT22;4464;50.882;4.730;2022-09-01T13:59:42;37.60;46.10
8856;DHT22;4464;50.882;4.730;2022-09-01T14:02:11;37.10;46.70
8856;DHT22;4464;50.882;4.730;2022-09-01T14:04:37;36.70;46.00
8856;DHT22;4464;50.882;4.730;2022-09-01T14:07:04;36.50;46.90
8856;DHT22;4464;50.882;4.730;2022-09-01T14:09:29;37.40;46.30
8856;DHT22;4464;50.882;4.730;2022-09-01T14:11:58;38.60;45.00
8856;DHT22;4464;50.882;4.730;2022-09-01T14:14:29;38.80;44.20
8856;DHT22;4464;50.882;4.730;2022-09-01T14:16:56;37.50;45.00
8856;DHT22;4464;50.882;4.730;2022-09-01T14:19:21;37.40;45.30
8856;DHT22;4464;50.882;4.730;2022-09-01T14:21:50;37.20;45.20
8856;DHT22;4464;50.882;4.730;2022-09-01T14:24:16;36.00;45.50
8856;DHT22;4464;50.882;4.730;2022-09-01T14:26:45;33.80;47.70
8856;DHT22;4464;50.882;4.730;2022-09-01T14:29:13;33.30;48.60
8856;DHT22;4464;50.882;4.730;2022-09-01T14:31:39;33.80;48.50
8856;DHT22;4464;50.882;4.730;2022-09-01T14:34:11;33.20;48.70
8856;DHT22;4464;50.882;4.730;2022-09-01T14:36:40;33.70;48.10
8856;DHT22;4464;50.882;4.730;2022-09-01T14:39:06;34.60;47.60
8856;DHT22;4464;50.882;4.730;2022-09-01T14:41:32;35.70;46.40
8856;DHT22;4464;50.882;4.730;2022-09-01T14:43:58;35.90;46.00
8856;DHT22;4464;50.882;4.730;2022-09-01T14:46:27;36.00;45.90
8856;DHT22;4464;50.882;4.730;2022-09-01T14:48:55;35.80;45.70
8856;DHT22;4464;50.882;4.730;2022-09-01T14:51:24;35.70;46.10
8856;DHT22;4464;50.882;4.730;2022-09-01T14:53:51;36.50;45.90
8856;DHT22;4464;50.882;4.730;2022-09-01T14:56:18;37.50;45.00
8856;DHT22;4464;50.882;4.730;2022-09-01T14:58:45;37.90;44.10
8856;DHT22;4464;50.882;4.730;2022-09-01T15:01:16;36.40;44.50
8856;DHT22;4464;50.882;4.730;2022-09-01T15:03:43;36.40;45.10
8856;DHT22;4464;50.882;4.730;2022-09-01T15:06:14;36.60;45.30
8856;DHT22;4464;50.882;4.730;2022-09-01T15:08:40;36.50;44.20
8856;DHT22;4464;50.882;4.730;2022-09-01T15:11:12;36.50;44.50
8856;DHT22;4464;50.882;4.730;2022-09-01T15:13:39;36.00;44.10
8856;DHT22;4464;50.882;4.730;2022-09-01T15:16:12;36.00;44.10
8856;DHT22;4464;50.882;4.730;2022-09-01T15:18:39;36.20;43.60
8856;DHT22;4464;50.882;4.730;2022-09-01T15:21:05;36.00;43.90
8856;DHT22;4464;50.882;4.730;2022-09-01T15:23:31;36.60;43.90
8856;DHT22;4464;50.882;4.730;2022-09-01T15:25:57;36.30;44.20
8856;DHT22;4464;50.882;4.730;2022-09-01T15:28:26;36.10;44.40
8856;DHT22;4464;50.882;4.730;2022-09-01T15:30:53;35.60;45.60
8856;DHT22;4464;50.882;4.730;2022-09-01T15:33:21;35.50;44.80
8856;DHT22;4464;50.882;4.730;2022-09-01T15:35:50;36.10;44.90
8856;DHT22;4464;50.882;4.730;2022-09-01T15:38:16;36.50;44.70
8856;DHT22;4464;50.882;4.730;2022-09-01T15:40:43;37.30;44.30
8856;DHT22;4464;50.882;4.730;2022-09-01T15:43:09;37.70;43.70
8856;DHT22;4464;50.882;4.730;2022-09-01T15:45:36;37.30;43.70
8856;DHT22;4464;50.882;4.730;2022-09-01T15:48:02;37.30;43.70
8856;DHT22;4464;50.882;4.730;2022-09-01T15:50:27;37.50;43.60
8856;DHT22;4464;50.882;4.730;2022-09-01T15:53:04;36.70;42.90
8856;DHT22;4464;50.882;4.730;2022-09-01T15:55:51;35.70;44.60
8856;DHT22;4464;50.882;4.730;2022-09-01T15:58:17;36.00;44.10
8856;DHT22;4464;50.882;4.730;2022-09-01T16:00:44;36.00;44.10
8856;DHT22;4464;50.882;4.730;2022-09-01T16:03:10;35.80;44.10
8856;DHT22;4464;50.882;4.730;2022-09-01T16:05:37;35.70;43.70
8856;DHT22;4464;50.882;4.730;2022-09-01T16:08:07;35.80;44.00
8856;DHT22;4464;50.882;4.730;2022-09-01T16:10:35;36.60;42.60
8856;DHT22;4464;50.882;4.730;2022-09-01T16:13:02;36.90;42.10
8856;DHT22;4464;50.882;4.730;2022-09-01T16:15:30;36.90;42.40
8856;DHT22;4464;50.882;4.730;2022-09-01T16:18:48;36.80;42.90
8856;DHT22;4464;50.882;4.730;2022-09-01T16:24:03;37.00;43.40
8856;DHT22;4464;50.882;4.730;2022-09-01T16:26:30;36.10;43.50
8856;DHT22;4464;50.882;4.730;2022-09-01T16:29:02;35.50;44.20
8856;DHT22;4464;50.882;4.730;2022-09-01T16:31:32;34.50;45.40
8856;DHT22;4464;50.882;4.730;2022-09-01T16:34:00;34.10;45.60
8856;DHT22;4464;50.882;4.730;2022-09-01T16:36:53;34.10;46.40
8856;DHT22;4464;50.882;4.730;2022-09-01T16:39:37;34.00;46.30
8856;DHT22;4464;50.882;4.730;2022-09-01T16:42:17;33.90;46.20
8856;DHT22;4464;50.882;4.730;2022-09-01T16:50:59;32.70;47.30
8856;DHT22;4464;50.882;4.730;2022-09-01T16:53:07;32.80;47.80
8856;DHT22;4464;50.882;4.730;2022-09-01T16:59:02;32.00;49.00
8856;DHT22;4464;50.882;4.730;2022-09-01T17:01:55;32.10;48.40
8856;DHT22;4464;50.882;4.730;2022-09-01T17:04:47;31.60;48.80
8856;DHT22;4464;50.882;4.730;2022-09-01T17:10:21;30.00;51.30
8856;DHT22;4464;50.882;4.730;2022-09-01T17:12:53;29.00;52.20
8856;DHT22;4464;50.882;4.730;2022-09-01T17:15:33;28.80;52.80
8856;DHT22;4464;50.882;4.730;2022-09-01T17:18:11;28.30;53.10
8856;DHT22;4464;50.882;4.730;2022-09-01T17:20:43;27.90;54.00
8856;DHT22;4464;50.882;4.730;2022-09-01T17:23:16;27.60;54.80
8856;DHT22;4464;50.882;4.730;2022-09-01T17:25:55;27.30;54.70
8856;DHT22;4464;50.882;4.730;2022-09-01T17:28:49;27.00;55.30
8856;DHT22;4464;50.882;4.730;2022-09-01T17:31:34;26.80;55.90
8856;DHT22;4464;50.882;4.730;2022-09-01T17:37:36;26.50;56.40
8856;DHT22;4464;50.882;4.730;2022-09-01T17:42:42;26.20;57.20
8856;DHT22;4464;50.882;4.730;2022-09-01T17:45:24;26.20;57.50
8856;DHT22;4464;50.882;4.730;2022-09-01T17:48:01;26.10;57.70
8856;DHT22;4464;50.882;4.730;2022-09-01T17:55:51;26.00;58.40
8856;DHT22;4464;50.882;4.730;2022-09-01T17:58:47;26.00;58.70
8856;DHT22;4464;50.882;4.730;2022-09-01T18:01:47;25.90;59.20
8856;DHT22;4464;50.882;4.730;2022-09-01T18:04:55;25.80;59.60